Time;durP1;ratioP1;P1;durP2;ratioP2;P2;SDS_P1;SDS_P2;PMS_P1;PMS_P2;Temp;Humidity;BMP_temperature;BMP_pressure;BME280_temperature;BME280_humidity;BME280_pressure;Samples;Min_cycle;Max_cycle;Signal;HPM_P1;HPM_P2
2022/06/27 00:01:14;;;;;;;1.08;0.50;;;14.00;99.90;;;;;;5037924;28;20198;-75
2022/06/27 00:03:44;;;;;;;1.08;0.50;;;14.10;99.90;;;;;;5033534;28;20953;-75
2022/06/27 00:06:19;;;;;;;5.30;3.00;;;14.10;99.90;;;;;;5038187;28;20199;-75
2022/06/27 00:08:50;;;;;;;1.58;0.90;;;14.10;99.90;;;;;;5035430;28;20217;-76
2022/06/27 00:11:22;;;;;;;2.25;0.93;;;14.20;99.90;;;;;;5046213;28;20205;-74
2022/06/27 00:13:54;;;;;;;0.95;0.68;;;14.20;99.90;;;;;;5044737;28;20224;-76
2022/06/27 00:16:25;;;;;;;5.57;1.10;;;14.30;99.90;;;;;;5047150;28;20189;-75
2022/06/27 00:18:56;;;;;;;2.90;0.85;;;14.40;99.90;;;;;;5042275;28;20252;-74
2022/06/27 00:21:26;;;;;;;0.98;0.60;;;14.40;99.90;;;;;;5041976;28;20198;-74
2022/06/27 00:23:57;;;;;;;0.75;0.60;;;14.50;99.90;;;;;;5042416;28;20193;-75
2022/06/27 00:26:28;;;;;;;1.35;0.50;;;14.60;99.90;;;;;;5043532;28;20190;-75
2022/06/27 00:29:00;;;;;;;1.27;0.57;;;14.70;99.90;;;;;;5043196;28;20218;-75
2022/06/27 00:31:31;;;;;;;1.48;0.70;;;14.70;99.90;;;;;;5050442;28;20198;-75
2022/06/27 00:34:02;;;;;;;0.93;0.50;;;14.80;99.90;;;;;;5042405;28;20214;-75
2022/06/27 00:36:32;;;;;;;5.43;0.60;;;15.00;99.90;;;;;;5036987;28;20704;-76
2022/06/27 00:39:03;;;;;;;2.85;0.80;;;15.00;99.90;;;;;;5041493;28;20203;-78
2022/06/27 00:41:34;;;;;;;1.17;0.60;;;15.10;99.90;;;;;;5036283;28;20198;-75
2022/06/27 00:44:07;;;;;;;2.70;0.90;;;15.10;99.90;;;;;;5044688;28;20200;-75
2022/06/27 00:46:38;;;;;;;3.90;0.70;;;15.10;99.90;;;;;;5040261;28;20645;-76
2022/06/27 00:49:08;;;;;;;1.40;0.50;;;15.20;99.90;;;;;;5036176;28;20194;-78
2022/06/27 00:51:39;;;;;;;1.75;0.70;;;15.30;99.90;;;;;;5034729;28;20538;-77
2022/06/27 00:54:10;;;;;;;6.13;0.85;;;15.40;99.90;;;;;;5052347;28;20190;-77
2022/06/27 00:56:41;;;;;;;2.85;0.93;;;15.50;99.90;;;;;;5038557;28;20198;-84
2022/06/27 00:59:14;;;;;;;3.35;0.90;;;15.60;99.90;;;;;;5047347;28;20657;-78
2022/06/27 01:01:45;;;;;;;2.35;0.70;;;15.70;99.90;;;;;;5040525;28;20194;-77
2022/06/27 01:04:15;;;;;;;2.97;0.80;;;15.60;99.90;;;;;;5037755;28;20198;-77
2022/06/27 01:06:46;;;;;;;3.80;0.82;;;15.60;99.90;;;;;;5039821;28;20198;-79
2022/06/27 01:09:17;;;;;;;2.50;0.60;;;15.70;99.90;;;;;;5037947;28;20205;-77
2022/06/27 01:11:48;;;;;;;2.15;0.60;;;15.70;99.90;;;;;;5024589;28;20191;-78
2022/06/27 01:14:21;;;;;;;2.97;0.82;;;15.90;99.90;;;;;;5031255;28;20194;-78
2022/06/27 01:16:52;;;;;;;3.42;0.75;;;16.00;99.90;;;;;;5032030;28;20205;-77
2022/06/27 01:19:23;;;;;;;3.17;0.70;;;16.10;99.90;;;;;;5031040;28;20205;-77
2022/06/27 01:21:56;;;;;;;1.35;0.65;;;16.00;99.90;;;;;;5032273;28;20204;-77
2022/06/27 01:24:29;;;;;;;6.40;0.95;;;16.00;99.90;;;;;;5033049;28;20198;-78
2022/06/27 01:27:00;;;;;;;2.47;0.80;;;16.10;99.90;;;;;;5029255;28;20678;-79
2022/06/27 01:29:31;;;;;;;3.05;0.70;;;16.20;99.90;;;;;;5022847;28;20202;-81
2022/06/27 01:32:02;;;;;;;1.38;0.70;;;16.10;99.90;;;;;;5026866;28;20202;-78
2022/06/27 01:34:33;;;;;;;3.15;0.82;;;16.20;99.90;;;;;;5034376;28;20637;-78
2022/06/27 01:37:04;;;;;;;1.77;0.88;;;16.20;99.90;;;;;;5029709;28;20230;-77
2022/06/27 01:39:36;;;;;;;3.80;0.80;;;16.10;99.90;;;;;;5032528;28;20198;-78
2022/06/27 01:42:08;;;;;;;3.47;0.90;;;16.00;99.90;;;;;;5030937;28;20197;-77
2022/06/27 01:44:38;;;;;;;3.83;1.20;;;15.90;99.90;;;;;;5027160;28;20677;-79
2022/06/27 01:47:11;;;;;;;3.08;1.05;;;15.90;99.90;;;;;;5031818;28;20212;-79
2022/06/27 01:49:42;;;;;;;5.38;1.20;;;15.70;99.90;;;;;;5029108;28;20205;-78
2022/06/27 01:52:17;;;;;;;3.45;0.90;;;15.70;99.90;;;;;;5029899;28;20208;-77
2022/06/27 01:54:50;;;;;;;5.35;1.15;;;15.60;99.90;;;;;;5037871;28;20321;-78
2022/06/27 01:57:20;;;;;;;6.85;1.27;;;15.50;99.90;;;;;;5041272;28;20672;-78
2022/06/27 01:59:53;;;;;;;8.65;1.23;;;15.40;99.90;;;;;;5038944;28;20186;-76
2022/06/27 02:02:24;;;;;;;7.05;0.98;;;15.60;99.90;;;;;;5038554;28;20199;-77
2022/06/27 02:04:54;;;;;;;6.53;1.20;;;15.60;99.90;;;;;;5035068;28;20194;-78
2022/06/27 02:07:25;;;;;;;5.68;1.20;;;15.70;99.90;;;;;;5032141;28;20198;-77
2022/06/27 02:09:58;;;;;;;6.03;1.20;;;15.80;99.90;;;;;;5036716;28;20208;-78
2022/06/27 02:12:30;;;;;;;5.38;1.10;;;15.80;99.90;;;;;;5029993;28;20195;-77
2022/06/27 02:15:01;;;;;;;4.47;0.98;;;15.70;99.90;;;;;;5037941;28;20193;-78
2022/06/27 02:17:32;;;;;;;6.50;1.27;;;15.70;99.90;;;;;;5037288;28;20193;-79
2022/06/27 02:20:03;;;;;;;2.92;1.23;;;15.70;99.90;;;;;;5037424;28;20201;-77
2022/06/27 02:22:34;;;;;;;6.13;1.10;;;15.60;99.90;;;;;;5033924;28;20204;-79
2022/06/27 02:25:07;;;;;;;3.55;1.10;;;15.60;99.90;;;;;;5038415;28;20198;-78
2022/06/27 02:27:38;;;;;;;4.70;1.00;;;15.70;99.90;;;;;;5033505;28;20669;-80
2022/06/27 02:30:10;;;;;;;5.60;1.00;;;15.70;99.90;;;;;;5031993;28;20691;-79
2022/06/27 02:32:42;;;;;;;6.05;1.20;;;15.50;99.90;;;;;;5035081;28;20221;-77
2022/06/27 02:35:14;;;;;;;5.28;1.52;;;15.40;99.90;;;;;;5040482;28;20198;-76
2022/06/27 02:37:45;;;;;;;5.38;1.83;;;15.30;99.90;;;;;;5045434;28;20312;-77
2022/06/27 02:40:20;;;;;;;6.93;1.13;;;15.30;99.90;;;;;;5043415;28;20187;-77
2022/06/27 02:42:52;;;;;;;4.68;1.30;;;15.10;99.90;;;;;;5031825;28;20198;-77
2022/06/27 02:45:23;;;;;;;5.43;1.38;;;15.00;99.90;;;;;;5037965;28;20194;-80
2022/06/27 02:47:56;;;;;;;4.50;1.13;;;15.00;99.90;;;;;;5038569;28;20217;-78
2022/06/27 02:50:29;;;;;;;2.90;1.02;;;15.00;99.90;;;;;;5041232;28;20608;-77
2022/06/27 02:53:02;;;;;;;5.10;1.77;;;15.10;99.90;;;;;;5043725;28;20538;-81
2022/06/27 02:55:37;;;;;;;6.90;1.85;;;15.10;99.90;;;;;;5038374;28;20194;-77
2022/06/27 02:58:15;;;;;;;4.18;1.60;;;15.10;99.90;;;;;;5041495;28;20205;-81
2022/06/27 03:00:46;;;;;;;1.75;0.90;;;15.10;99.90;;;;;;5042171;28;20208;-82
2022/06/27 03:03:19;;;;;;;4.40;1.10;;;15.10;99.90;;;;;;5036708;28;20205;-78
2022/06/27 03:06:00;;;;;;;2.65;1.20;;;15.00;99.90;;;;;;5039530;28;20204;-79
2022/06/27 03:08:40;;;;;;;3.10;1.40;;;15.00;99.90;;;;;;5036102;28;20268;-79
2022/06/27 03:11:14;;;;;;;2.72;1.00;;;15.00;99.90;;;;;;5037723;28;20198;-79
2022/06/27 03:13:45;;;;;;;2.55;0.80;;;15.10;99.90;;;;;;5041385;28;20584;-81
2022/06/27 03:16:15;;;;;;;2.40;0.73;;;15.20;99.90;;;;;;5037035;28;20728;-79
2022/06/27 03:18:47;;;;;;;3.42;0.82;;;15.30;99.90;;;;;;5036721;28;20202;-79
2022/06/27 03:21:20;;;;;;;1.50;0.90;;;15.20;99.90;;;;;;5050366;28;20182;-79
2022/06/27 03:23:51;;;;;;;1.80;1.00;;;15.10;99.90;;;;;;5043946;28;20197;-77
2022/06/27 03:26:24;;;;;;;2.47;0.75;;;15.10;99.90;;;;;;5038194;28;20687;-77
2022/06/27 03:28:54;;;;;;;2.35;1.00;;;15.30;99.90;;;;;;5043587;28;20221;-77
2022/06/27 03:31:25;;;;;;;3.03;0.93;;;15.50;99.90;;;;;;5043673;28;20202;-78
2022/06/27 03:33:56;;;;;;;3.28;0.80;;;15.60;99.90;;;;;;5032264;28;20227;-78
2022/06/27 03:36:26;;;;;;;1.10;0.80;;;15.60;99.90;;;;;;5042514;28;20600;-79
2022/06/27 03:38:57;;;;;;;2.33;1.00;;;15.70;99.90;;;;;;5039314;28;20276;-78
2022/06/27 03:41:30;;;;;;;1.52;0.70;;;15.60;99.90;;;;;;5037113;28;20209;-78
2022/06/27 03:44:00;;;;;;;2.58;0.68;;;15.50;99.90;;;;;;5047065;28;20212;-78
2022/06/27 03:46:31;;;;;;;1.83;0.80;;;15.30;99.90;;;;;;5036485;28;20592;-78
2022/06/27 03:51:49;;;;;;;2.72;0.70;;;15.20;99.90;;;;;;5032966;28;20201;-82
2022/06/27 03:54:20;;;;;;;0.68;0.68;;;15.10;99.90;;;;;;5037669;28;20194;-78
2022/06/27 03:56:53;;;;;;;1.95;0.90;;;15.00;99.90;;;;;;5043592;28;20193;-79
2022/06/27 03:59:23;;;;;;;2.08;0.80;;;15.00;99.90;;;;;;5038616;28;20201;-81
2022/06/27 04:01:54;;;;;;;5.80;0.80;;;14.90;99.90;;;;;;5041153;28;20201;-79
2022/06/27 04:04:25;;;;;;;1.58;0.70;;;14.90;99.90;;;;;;5034256;28;20204;-79
2022/06/27 04:06:56;;;;;;;5.18;0.98;;;15.00;99.90;;;;;;5041415;28;20212;-78
2022/06/27 04:09:27;;;;;;;1.50;0.70;;;15.00;99.90;;;;;;5043041;28;20297;-81
2022/06/27 04:12:00;;;;;;;1.33;0.85;;;14.90;99.90;;;;;;5043782;28;20190;-79
2022/06/27 04:14:31;;;;;;;2.92;0.73;;;14.90;99.90;;;;;;5034633;28;20209;-78
2022/06/27 04:17:01;;;;;;;3.95;0.98;;;14.80;99.90;;;;;;5045190;28;20205;-78
2022/06/27 04:19:32;;;;;;;1.10;0.60;;;14.70;99.90;;;;;;5046293;28;20614;-78
2022/06/27 04:22:03;;;;;;;2.33;0.80;;;14.70;99.90;;;;;;5053826;28;20201;-79
2022/06/27 04:24:33;;;;;;;2.00;0.80;;;14.70;99.90;;;;;;5039393;28;20209;-78
2022/06/27 04:27:07;;;;;;;1.75;0.80;;;14.60;99.90;;;;;;5038854;28;20198;-78
2022/06/27 04:29:37;;;;;;;2.00;0.88;;;14.60;99.90;;;;;;5045202;28;20214;-80
2022/06/27 04:32:09;;;;;;;2.28;0.70;;;14.50;99.90;;;;;;5030771;28;20589;-80
2022/06/27 04:34:40;;;;;;;3.15;0.93;;;14.50;99.90;;;;;;5030135;28;20201;-80
2022/06/27 04:37:11;;;;;;;6.50;1.00;;;14.50;99.90;;;;;;5027923;28;20234;-78
2022/06/27 04:39:42;;;;;;;2.67;1.33;;;14.40;99.90;;;;;;5037788;28;20191;-77
2022/06/27 04:42:15;;;;;;;4.32;1.20;;;14.40;99.90;;;;;;5035637;28;20684;-76
2022/06/27 04:44:46;;;;;;;2.70;0.95;;;14.40;99.90;;;;;;5038907;28;20198;-76
2022/06/27 04:47:17;;;;;;;4.53;0.95;;;14.30;99.90;;;;;;5038522;28;20190;-82
2022/06/27 04:49:48;;;;;;;4.53;0.98;;;14.30;99.90;;;;;;5034192;28;20218;-77
2022/06/27 04:52:19;;;;;;;4.82;1.10;;;14.30;99.90;;;;;;5035628;28;20567;-78
2022/06/27 04:54:49;;;;;;;3.33;0.95;;;14.20;99.90;;;;;;5039309;28;20202;-75
2022/06/27 04:57:22;;;;;;;5.03;1.05;;;14.10;99.90;;;;;;5036156;28;20313;-76
2022/06/27 04:59:53;;;;;;;3.30;1.10;;;14.10;99.90;;;;;;5041167;28;20212;-75
2022/06/27 05:02:24;;;;;;;2.67;1.00;;;14.10;99.90;;;;;;5040353;28;20219;-77
2022/06/27 05:04:54;;;;;;;2.10;0.90;;;14.10;99.90;;;;;;5042266;28;20614;-77
2022/06/27 05:07:25;;;;;;;4.88;1.10;;;14.10;99.90;;;;;;5046369;28;20205;-80
2022/06/27 05:09:56;;;;;;;1.65;0.90;;;14.10;99.90;;;;;;5034788;28;20685;-78
2022/06/27 05:12:30;;;;;;;4.00;0.85;;;14.10;99.90;;;;;;5036466;28;20199;-81
2022/06/27 05:15:01;;;;;;;3.85;0.93;;;14.00;99.90;;;;;;5036077;28;20202;-80
2022/06/27 05:17:32;;;;;;;6.43;1.30;;;14.00;99.90;;;;;;5041182;28;20186;-78
2022/06/27 05:20:04;;;;;;;3.03;1.08;;;14.00;99.90;;;;;;5044628;28;20193;-85
2022/06/27 05:22:35;;;;;;;2.65;0.90;;;14.10;99.90;;;;;;5048426;28;20652;-80
2022/06/27 05:25:06;;;;;;;5.20;1.10;;;14.10;99.90;;;;;;5039655;28;20595;-78
2022/06/27 05:27:38;;;;;;;4.20;1.10;;;14.10;99.90;;;;;;5040530;28;20202;-79
2022/06/27 05:30:10;;;;;;;4.18;0.93;;;14.10;99.90;;;;;;5052520;28;20695;-85
2022/06/27 05:32:40;;;;;;;5.97;1.23;;;14.10;99.90;;;;;;5031626;28;20601;-81
2022/06/27 05:35:12;;;;;;;3.33;1.00;;;14.10;99.90;;;;;;5041546;28;20256;-77
2022/06/27 05:37:43;;;;;;;3.20;0.98;;;14.00;99.90;;;;;;5047438;28;20632;-79
2022/06/27 05:40:14;;;;;;;5.95;1.52;;;14.00;99.90;;;;;;5048751;28;20190;-80
2022/06/27 05:42:47;;;;;;;6.63;1.10;;;14.00;99.90;;;;;;5047715;28;20187;-80
2022/06/27 05:45:18;;;;;;;2.53;0.85;;;14.00;99.90;;;;;;5037888;28;20198;-79
2022/06/27 05:47:49;;;;;;;5.05;1.20;;;14.00;99.90;;;;;;5047780;28;20193;-79
2022/06/27 05:50:19;;;;;;;3.63;1.00;;;13.90;99.90;;;;;;5035378;28;20214;-81
2022/06/27 05:52:51;;;;;;;4.70;0.95;;;13.90;99.90;;;;;;5047110;28;20194;-79
2022/06/27 05:55:23;;;;;;;4.50;1.00;;;13.90;99.90;;;;;;5042426;28;20191;-78
2022/06/27 05:57:56;;;;;;;3.58;0.70;;;13.80;99.90;;;;;;5051150;28;20189;-81
2022/06/27 06:00:28;;;;;;;4.63;1.23;;;13.80;99.90;;;;;;5043322;28;20206;-79
2022/06/27 06:02:59;;;;;;;2.63;0.82;;;13.70;99.90;;;;;;5033619;28;20190;-80
2022/06/27 06:05:30;;;;;;;5.18;1.00;;;13.80;99.90;;;;;;5047630;28;20206;-79
2022/06/27 06:08:04;;;;;;;2.05;0.80;;;13.90;99.90;;;;;;5029442;28;20182;-77
2022/06/27 06:10:35;;;;;;;4.13;1.20;;;13.90;99.90;;;;;;5038365;28;20283;-77
2022/06/27 06:13:08;;;;;;;2.30;0.80;;;13.90;99.90;;;;;;5040197;28;20187;-80
2022/06/27 06:15:40;;;;;;;4.50;1.10;;;13.90;99.90;;;;;;5045259;28;20197;-81
2022/06/27 06:18:12;;;;;;;3.47;1.00;;;13.80;99.90;;;;;;5041045;28;20187;-78
2022/06/27 06:20:42;;;;;;;8.60;1.23;;;13.70;99.90;;;;;;5044462;28;20186;-79
2022/06/27 06:23:13;;;;;;;2.22;0.90;;;13.70;99.90;;;;;;5043614;28;20198;-80
2022/06/27 06:25:44;;;;;;;3.20;0.82;;;13.60;99.90;;;;;;5039190;28;20206;-80
2022/06/27 06:28:16;;;;;;;2.30;0.85;;;13.60;99.90;;;;;;5041944;28;20194;-80
2022/06/27 06:30:47;;;;;;;4.10;0.95;;;13.60;99.90;;;;;;5033491;28;20214;-79
2022/06/27 06:33:18;;;;;;;3.00;0.88;;;13.60;99.90;;;;;;5038387;28;20224;-82
2022/06/27 06:35:49;;;;;;;5.47;0.90;;;13.60;99.90;;;;;;5046249;28;20182;-80
2022/06/27 06:38:19;;;;;;;3.13;0.75;;;13.50;99.90;;;;;;5030931;28;20212;-81
2022/06/27 06:40:50;;;;;;;2.75;0.90;;;13.50;99.90;;;;;;5033165;28;20217;-80
2022/06/27 06:43:22;;;;;;;5.13;1.20;;;13.50;99.90;;;;;;5038495;28;20201;-79
2022/06/27 06:45:53;;;;;;;4.35;1.10;;;13.50;99.90;;;;;;5049024;28;20277;-80
2022/06/27 06:48:24;;;;;;;3.72;1.00;;;13.30;99.90;;;;;;5039700;28;20210;-80
2022/06/27 06:50:56;;;;;;;4.28;0.90;;;13.30;99.90;;;;;;5040747;28;20232;-79
2022/06/27 06:53:27;;;;;;;3.90;1.08;;;13.20;99.90;;;;;;5031100;28;20285;-77
2022/06/27 06:55:58;;;;;;;4.13;0.95;;;13.20;99.90;;;;;;5045133;28;20209;-79
2022/06/27 06:58:30;;;;;;;4.07;1.10;;;13.10;99.90;;;;;;5038292;28;20194;-76
2022/06/27 07:01:01;;;;;;;2.92;0.85;;;13.10;99.90;;;;;;5034255;28;20202;-78
2022/06/27 07:03:33;;;;;;;4.25;1.00;;;13.00;99.90;;;;;;5042582;28;20216;-79
2022/06/27 07:06:04;;;;;;;4.53;1.08;;;13.00;99.90;;;;;;5039332;28;20201;-79
2022/06/27 07:08:39;;;;;;;4.70;1.17;;;12.90;99.90;;;;;;5040094;28;20221;-78
2022/06/27 07:11:10;;;;;;;1.58;0.77;;;12.90;99.90;;;;;;5044018;28;20200;-77
2022/06/27 07:13:42;;;;;;;3.15;0.90;;;12.90;99.90;;;;;;5035318;28;20209;-77
2022/06/27 07:16:14;;;;;;;2.47;0.95;;;12.90;99.90;;;;;;5040526;28;20224;-78
2022/06/27 07:18:44;;;;;;;1.65;0.70;;;12.80;99.90;;;;;;5035705;28;20614;-79
2022/06/27 07:21:16;;;;;;;5.10;1.05;;;12.80;99.90;;;;;;5040839;28;20276;-79
2022/06/27 07:23:48;;;;;;;1.42;0.88;;;12.80;99.90;;;;;;5034807;28;20245;-78
2022/06/27 07:26:19;;;;;;;3.65;0.70;;;12.80;99.90;;;;;;5036241;28;20727;-78
2022/06/27 07:28:52;;;;;;;3.50;1.02;;;12.80;99.90;;;;;;5032684;28;20217;-76
2022/06/27 07:31:23;;;;;;;1.67;0.70;;;12.80;99.90;;;;;;5038062;28;20232;-80
2022/06/27 07:33:54;;;;;;;4.03;0.90;;;12.80;99.90;;;;;;5041633;28;20217;-78
2022/06/27 07:36:26;;;;;;;2.88;0.82;;;12.70;99.90;;;;;;5036685;28;20701;-78
2022/06/27 07:38:58;;;;;;;3.92;1.10;;;12.70;99.90;;;;;;5037654;28;20277;-78
2022/06/27 07:41:32;;;;;;;3.92;1.08;;;12.70;99.90;;;;;;5039085;28;20229;-76
2022/06/27 07:44:05;;;;;;;2.20;0.80;;;12.70;99.90;;;;;;5043744;28;20190;-78
2022/06/27 07:46:38;;;;;;;2.60;0.77;;;12.60;99.90;;;;;;5042198;28;20647;-77
2022/06/27 07:49:08;;;;;;;2.88;1.00;;;12.70;99.90;;;;;;5040488;28;20232;-78
2022/06/27 07:51:39;;;;;;;3.13;0.98;;;12.70;99.90;;;;;;5039373;28;20197;-77
2022/06/27 07:54:10;;;;;;;1.85;0.80;;;12.60;99.90;;;;;;5041023;28;20558;-78
2022/06/27 07:56:41;;;;;;;2.58;0.80;;;12.60;99.90;;;;;;5037924;28;20226;-79
2022/06/27 07:59:14;;;;;;;3.08;0.80;;;12.60;99.90;;;;;;5038821;28;20198;-77
2022/06/27 08:01:45;;;;;;;3.22;1.10;;;12.60;99.90;;;;;;5043309;28;20202;-78
2022/06/27 08:04:15;;;;;;;3.83;1.00;;;12.50;99.90;;;;;;5033790;28;20198;-78
2022/06/27 08:06:46;;;;;;;2.17;0.90;;;12.50;99.90;;;;;;5035494;28;20198;-77
2022/06/27 08:09:21;;;;;;;3.30;1.05;;;12.40;99.90;;;;;;5040457;28;20229;-78
2022/06/27 08:11:52;;;;;;;2.13;0.90;;;12.40;99.90;;;;;;5044066;28;20181;-79
2022/06/27 08:14:25;;;;;;;2.80;0.90;;;12.30;99.90;;;;;;5043588;28;20217;-77
2022/06/27 08:16:56;;;;;;;1.65;1.00;;;12.30;99.90;;;;;;5029157;28;20207;-78
2022/06/27 08:19:27;;;;;;;4.10;1.10;;;12.20;99.90;;;;;;5039429;28;20201;-78
2022/06/27 08:21:58;;;;;;;2.75;0.85;;;12.20;99.90;;;;;;5034462;28;20202;-77
2022/06/27 08:24:29;;;;;;;3.00;1.08;;;12.40;99.90;;;;;;5038658;28;20257;-77
2022/06/27 08:27:00;;;;;;;1.63;0.90;;;12.20;99.90;;;;;;5030602;28;20195;-78
2022/06/27 08:29:32;;;;;;;3.00;1.20;;;12.30;99.90;;;;;;5037430;28;20677;-77
2022/06/27 08:32:03;;;;;;;1.95;1.00;;;12.20;99.90;;;;;;5040853;28;20213;-77
2022/06/27 08:34:33;;;;;;;2.78;1.20;;;12.20;99.90;;;;;;5035499;28;20665;-77
2022/06/27 08:37:04;;;;;;;1.92;0.90;;;12.20;99.90;;;;;;5038816;28;20646;-78
2022/06/27 08:39:35;;;;;;;4.68;1.15;;;12.20;99.90;;;;;;5040294;28;20206;-78
2022/06/27 08:42:06;;;;;;;3.13;1.23;;;12.20;99.90;;;;;;5043617;28;20236;-77
2022/06/27 08:44:39;;;;;;;5.82;1.40;;;12.10;99.90;;;;;;5040271;28;20219;-77
2022/06/27 08:47:11;;;;;;;2.47;1.42;;;12.00;99.90;;;;;;5037043;28;20661;-77
2022/06/27 08:49:43;;;;;;;3.67;1.40;;;12.00;99.90;;;;;;5038658;28;20211;-78
2022/06/27 08:52:14;;;;;;;2.70;1.33;;;11.90;99.90;;;;;;5038810;28;20201;-78
2022/06/27 08:54:45;;;;;;;3.28;1.45;;;11.80;99.90;;;;;;5034398;28;20243;-78
2022/06/27 08:57:18;;;;;;;5.65;1.92;;;11.80;99.90;;;;;;5035833;28;20190;-78
2022/06/27 08:59:54;;;;;;;2.38;1.60;;;11.70;99.90;;;;;;5035492;28;20285;-79
2022/06/27 09:02:26;;;;;;;3.95;1.58;;;11.70;99.90;;;;;;5045181;28;20209;-77
2022/06/27 09:05:02;;;;;;;3.78;1.60;;;11.60;99.90;;;;;;5035366;28;20229;-78
2022/06/27 09:07:53;;;;;;;2.75;1.48;;;11.60;99.90;;;;;;5043980;28;20205;-78
2022/06/27 09:10:32;;;;;;;4.18;1.50;;;11.50;99.90;;;;;;5041002;28;20344;-78
2022/06/27 09:13:05;;;;;;;5.28;1.75;;;11.50;99.90;;;;;;5042087;28;20202;-79
2022/06/27 09:15:53;;;;;;;3.58;1.35;;;11.50;99.90;;;;;;5039401;28;20205;-79
2022/06/27 09:18:25;;;;;;;2.17;1.50;;;11.40;99.90;;;;;;5039521;28;20199;-78
2022/06/27 09:20:58;;;;;;;2.78;1.38;;;11.40;99.90;;;;;;5037215;28;20193;-78
2022/06/27 09:23:43;;;;;;;3.40;1.40;;;11.40;99.90;;;;;;5043202;28;20221;-79
2022/06/27 09:26:16;;;;;;;2.50;1.25;;;11.40;99.90;;;;;;5031559;28;20320;-78
2022/06/27 09:28:50;;;;;;;1.92;1.08;;;11.40;99.90;;;;;;5038835;28;20827;-78
2022/06/27 09:31:44;;;;;;;1.98;1.20;;;11.40;99.90;;;;;;5040039;28;20229;-78
2022/06/27 09:34:20;;;;;;;4.50;1.35;;;11.40;99.90;;;;;;5037341;28;20713;-79
2022/06/27 09:36:52;;;;;;;2.95;1.23;;;11.40;99.90;;;;;;5041753;28;20273;-78
2022/06/27 09:39:24;;;;;;;3.53;1.10;;;11.40;99.90;;;;;;5032923;28;20285;-79
2022/06/27 09:41:59;;;;;;;5.05;1.35;;;11.40;99.90;;;;;;5045600;28;20295;-80
2022/06/27 09:44:31;;;;;;;3.13;1.20;;;11.40;99.90;;;;;;5042854;28;20631;-78
2022/06/27 09:47:06;;;;;;;2.65;1.30;;;11.40;99.90;;;;;;5047614;28;20194;-79
2022/06/27 09:49:42;;;;;;;3.90;1.50;;;11.30;99.90;;;;;;5041452;28;20193;-79
2022/06/27 09:52:14;;;;;;;2.42;1.33;;;11.30;99.90;;;;;;5043434;28;20283;-77
2022/06/27 09:54:46;;;;;;;2.50;1.15;;;11.30;99.90;;;;;;5041478;28;20194;-78
2022/06/27 09:57:19;;;;;;;2.45;1.13;;;11.30;99.90;;;;;;5044609;28;20552;-78
2022/06/27 09:59:50;;;;;;;2.92;1.13;;;11.30;99.90;;;;;;5043548;28;20653;-77
2022/06/27 10:02:23;;;;;;;2.55;1.30;;;11.30;99.90;;;;;;5044966;28;20668;-79
2022/06/27 10:04:54;;;;;;;1.15;0.85;;;11.40;99.90;;;;;;5041672;28;20186;-79
2022/06/27 10:07:26;;;;;;;1.58;0.93;;;11.40;99.90;;;;;;5042422;28;20208;-79
2022/06/27 10:09:57;;;;;;;2.88;0.90;;;11.50;99.90;;;;;;5034734;28;20194;-78
2022/06/27 10:12:31;;;;;;;1.95;0.90;;;11.40;99.90;;;;;;5045324;28;20193;-78
2022/06/27 10:15:27;;;;;;;2.78;0.90;;;11.50;99.90;;;;;;5047639;28;20192;-77
2022/06/27 10:18:01;;;;;;;4.00;0.90;;;11.40;99.90;;;;;;5034853;28;20199;-78
2022/06/27 10:20:33;;;;;;;1.30;0.70;;;11.40;99.90;;;;;;5043570;28;20249;-79
2022/06/27 10:23:28;;;;;;;3.90;1.00;;;11.40;99.90;;;;;;5045563;28;20190;-77
2022/06/27 10:26:01;;;;;;;1.98;0.82;;;11.40;99.90;;;;;;5036461;28;20198;-79
2022/06/27 10:28:32;;;;;;;5.35;0.93;;;11.40;99.90;;;;;;5039719;28;20273;-78
2022/06/27 10:31:08;;;;;;;4.13;1.00;;;11.40;99.90;;;;;;5036111;28;20240;-78
2022/06/27 10:33:42;;;;;;;5.75;1.20;;;11.50;99.90;;;;;;5036451;28;20724;-79
2022/06/27 10:36:16;;;;;;;2.17;1.00;;;11.40;99.90;;;;;;5041597;28;20244;-77
2022/06/27 10:38:57;;;;;;;4.07;1.20;;;11.30;99.90;;;;;;5037939;28;20190;-79
2022/06/27 10:41:44;;;;;;;2.88;1.10;;;11.30;99.90;;;;;;5025253;28;20289;-77
2022/06/27 10:44:35;;;;;;;4.03;1.00;;;11.30;99.90;;;;;;5030784;28;20189;-78
2022/06/27 10:47:06;;;;;;;3.28;1.10;;;11.30;99.90;;;;;;5045419;28;20202;-79
2022/06/27 10:49:39;;;;;;;5.47;1.02;;;11.20;99.90;;;;;;5039171;28;20206;-78
2022/06/27 10:52:35;;;;;;;3.58;0.98;;;11.20;99.90;;;;;;5039027;28;20232;-77
2022/06/27 10:55:24;;;;;;;3.05;1.00;;;11.20;99.90;;;;;;5035058;28;20646;-77
2022/06/27 10:57:56;;;;;;;2.67;0.95;;;11.10;99.90;;;;;;5042764;28;20197;-77
2022/06/27 11:00:47;;;;;;;4.00;1.10;;;11.10;99.90;;;;;;5045738;28;20649;-77
2022/06/27 11:03:24;;;;;;;5.85;1.00;;;11.10;99.90;;;;;;5041426;28;20204;-77
2022/06/27 11:06:08;;;;;;;2.85;1.08;;;11.10;99.90;;;;;;5032860;28;20277;-77
2022/06/27 11:08:40;;;;;;;2.78;1.02;;;11.10;99.90;;;;;;5037485;28;20733;-76
2022/06/27 11:11:17;;;;;;;2.60;1.20;;;11.00;99.90;;;;;;5040478;28;20214;-77
2022/06/27 11:13:49;;;;;;;3.20;1.15;;;11.00;99.90;;;;;;5049096;28;20286;-77
2022/06/27 11:16:21;;;;;;;1.48;1.05;;;10.90;99.90;;;;;;5041028;28;20198;-77
2022/06/27 11:18:53;;;;;;;2.30;1.15;;;10.90;99.90;;;;;;5038825;28;20205;-77
2022/06/27 11:21:26;;;;;;;2.72;1.20;;;10.80;99.90;;;;;;5041837;28;20197;-78
2022/06/27 11:23:59;;;;;;;2.90;1.30;;;10.80;99.90;;;;;;5044209;28;20193;-78
2022/06/27 11:26:31;;;;;;;2.03;1.33;;;10.70;99.90;;;;;;5046247;28;20198;-79
2022/06/27 11:32:03;;;;;;;3.28;1.20;;;10.70;99.90;;;;;;5046359;28;20260;-81
2022/06/27 11:34:35;;;;;;;1.13;1.00;;;10.70;99.90;;;;;;5054461;28;20185;-81
2022/06/27 11:37:16;;;;;;;3.13;1.52;;;10.60;99.90;;;;;;5046888;28;20229;-79
2022/06/27 11:40:00;;;;;;;2.53;1.30;;;10.50;99.90;;;;;;5046119;28;20225;-79
2022/06/27 11:42:33;;;;;;;2.88;1.55;;;10.50;99.90;;;;;;5031657;28;20634;-78
2022/06/27 11:45:10;;;;;;;3.50;1.58;;;10.50;99.90;;;;;;5045392;28;20202;-78
2022/06/27 11:47:43;;;;;;;3.70;1.60;;;10.50;99.90;;;;;;5041709;28;20194;-79
2022/06/27 11:50:15;;;;;;;2.75;1.50;;;10.40;99.90;;;;;;5042951;28;20198;-79
2022/06/27 11:52:49;;;;;;;3.88;1.58;;;10.30;99.90;;;;;;5045149;28;20194;-79
2022/06/27 11:55:22;;;;;;;3.90;1.73;;;10.30;99.90;;;;;;5048881;28;20206;-78
2022/06/27 11:57:54;;;;;;;4.30;1.65;;;10.20;99.90;;;;;;5046213;28;20196;-79
2022/06/27 12:00:26;;;;;;;5.13;1.70;;;10.20;99.90;;;;;;5046552;28;20642;-79
2022/06/27 12:03:05;;;;;;;3.92;1.70;;;10.10;99.90;;;;;;5048536;28;20191;-79
2022/06/27 12:05:36;;;;;;;3.58;1.85;;;10.00;99.90;;;;;;5046143;28;20711;-79
2022/06/27 12:08:09;;;;;;;4.97;1.50;;;9.90;99.90;;;;;;5041685;28;20201;-78
2022/06/27 12:11:17;;;;;;;3.92;1.83;;;9.90;99.90;;;;;;5036530;28;20634;-78
2022/06/27 12:13:41;;;;;;;4.15;1.80;;;9.80;99.90;;;;;;5034202;28;20259;-79
2022/06/27 12:16:14;;;;;;;2.40;1.50;;;9.80;99.90;;;;;;5040205;28;20657;-78
2022/06/27 12:18:46;;;;;;;4.65;1.80;;;9.70;99.90;;;;;;5042673;28;20206;-78
2022/06/27 12:21:17;;;;;;;5.70;1.75;;;9.70;99.90;;;;;;5045979;28;20224;-78
2022/06/27 12:23:50;;;;;;;4.90;1.77;;;9.70;99.90;;;;;;5034845;28;20189;-78
2022/06/27 12:26:20;;;;;;;3.00;1.55;;;9.60;99.90;;;;;;5043179;28;20252;-78
2022/06/27 12:28:51;;;;;;;3.58;1.90;;;9.60;99.90;;;;;;5040879;28;20194;-78
2022/06/27 12:31:22;;;;;;;2.33;1.60;;;9.60;99.90;;;;;;5034021;28;20222;-77
2022/06/27 12:33:53;;;;;;;3.30;1.67;;;9.60;99.90;;;;;;5043875;28;20672;-78
2022/06/27 12:36:23;;;;;;;3.03;1.80;;;9.60;99.90;;;;;;5042061;28;20318;-78
2022/06/27 12:38:56;;;;;;;34.85;17.40;;;9.60;99.90;;;;;;5034972;28;20217;-78
2022/06/27 12:41:26;;;;;;;64.68;37.65;;;9.60;99.90;;;;;;5034483;28;20288;-76
2022/06/27 12:43:58;;;;;;;15.38;7.07;;;9.60;99.90;;;;;;5042686;28;20215;-77
2022/06/27 12:46:30;;;;;;;6.50;3.70;;;9.60;99.90;;;;;;5044449;28;20233;-78
2022/06/27 12:49:00;;;;;;;7.60;2.80;;;9.60;99.90;;;;;;5037327;28;20606;-78
2022/06/27 12:51:31;;;;;;;6.15;2.30;;;9.60;99.90;;;;;;5037077;28;20596;-78
2022/06/27 12:54:04;;;;;;;7.75;2.05;;;9.60;99.90;;;;;;5047199;28;20236;-78
2022/06/27 12:56:34;;;;;;;5.60;2.22;;;9.70;99.90;;;;;;5034642;28;20614;-78
2022/06/27 12:59:05;;;;;;;4.15;2.08;;;9.70;99.90;;;;;;5033424;28;20202;-78
2022/06/27 13:01:36;;;;;;;5.07;1.85;;;9.70;99.90;;;;;;5040781;28;20186;-79
2022/06/27 13:04:06;;;;;;;71.25;36.50;;;9.70;99.90;;;;;;5044294;28;20190;-78
2022/06/27 13:06:37;;;;;;;8.30;3.75;;;9.70;99.90;;;;;;5043302;28;20193;-78
2022/06/27 13:09:10;;;;;;;5.97;3.35;;;9.70;99.90;;;;;;5034068;28;20600;-77
2022/06/27 13:11:40;;;;;;;7.32;3.00;;;9.60;99.90;;;;;;5043297;28;20214;-77
2022/06/27 13:14:11;;;;;;;5.65;2.40;;;9.60;99.90;;;;;;5040639;28;20197;-77
2022/06/27 13:16:42;;;;;;;4.82;2.03;;;9.60;99.90;;;;;;5050185;28;20202;-77
2022/06/27 13:19:12;;;;;;;5.07;2.10;;;9.60;99.90;;;;;;5040564;28;20206;-78
2022/06/27 13:21:43;;;;;;;8.27;2.20;;;9.60;99.90;;;;;;5040597;28;20213;-77